sensor_id;sensor_type;location;lat;lon;timestamp;pressure;altitude;pressure_sealevel;temperature;humidity
74722;BME280;63470;49.826;6.740;2022-12-07T00:01:08;100497.48;;;4.45;69.60
74722;BME280;63470;49.826;6.740;2022-12-07T00:03:31;100498.51;;;4.49;69.52
74722;BME280;63470;49.826;6.740;2022-12-07T00:06:02;100491.49;;;4.50;69.53
74722;BME280;63470;49.826;6.740;2022-12-07T00:08:33;100492.04;;;4.53;69.52
74722;BME280;63470;49.826;6.740;2022-12-07T00:11:11;100482.57;;;4.55;69.52
74722;BME280;63470;49.826;6.740;2022-12-07T00:13:35;100483.34;;;4.57;69.51
74722;BME280;63470;49.826;6.740;2022-12-07T00:16:16;100471.83;;;4.59;69.42
74722;BME280;63470;49.826;6.740;2022-12-07T00:18:35;100473.39;;;4.58;69.31
74722;BME280;63470;49.826;6.740;2022-12-07T00:21:11;100467.01;;;4.58;69.31
74722;BME280;63470;49.826;6.740;2022-12-07T00:23:36;100466.53;;;4.58;69.29
74722;BME280;63470;49.826;6.740;2022-12-07T00:26:08;100465.20;;;4.57;69.32
74722;BME280;63470;49.826;6.740;2022-12-07T00:28:37;100468.73;;;4.58;69.40
74722;BME280;63470;49.826;6.740;2022-12-07T00:31:11;100467.51;;;4.59;69.46
74722;BME280;63470;49.826;6.740;2022-12-07T00:33:39;100464.39;;;4.59;69.52
74722;BME280;63470;49.826;6.740;2022-12-07T00:36:11;100469.03;;;4.62;69.49
74722;BME280;63470;49.826;6.740;2022-12-07T00:38:40;100455.89;;;4.64;69.36
74722;BME280;63470;49.826;6.740;2022-12-07T00:41:12;100457.84;;;4.62;69.34
74722;BME280;63470;49.826;6.740;2022-12-07T00:43:42;100460.81;;;4.61;69.30
74722;BME280;63470;49.826;6.740;2022-12-07T00:46:12;100456.81;;;4.58;69.32
74722;BME280;63470;49.826;6.740;2022-12-07T00:48:42;100446.98;;;4.57;69.30
74722;BME280;63470;49.826;6.740;2022-12-07T00:51:14;100443.20;;;4.54;69.32
74722;BME280;63470;49.826;6.740;2022-12-07T00:53:43;100441.53;;;4.53;69.31
74722;BME280;63470;49.826;6.740;2022-12-07T00:56:19;100442.64;;;4.49;69.36
74722;BME280;63470;49.826;6.740;2022-12-07T00:58:49;100442.77;;;4.46;69.44
74722;BME280;63470;49.826;6.740;2022-12-07T01:01:15;100439.30;;;4.44;69.52
74722;BME280;63470;49.826;6.740;2022-12-07T01:03:46;100437.84;;;4.44;69.51
74722;BME280;63470;49.826;6.740;2022-12-07T01:06:18;100443.06;;;4.45;69.53
74722;BME280;63470;49.826;6.740;2022-12-07T01:08:47;100447.92;;;4.46;69.57
74722;BME280;63470;49.826;6.740;2022-12-07T01:11:20;100444.27;;;4.49;69.56
74722;BME280;63470;49.826;6.740;2022-12-07T01:13:50;100442.91;;;4.53;69.51
74722;BME280;63470;49.826;6.740;2022-12-07T01:16:19;100441.33;;;4.56;69.45
74722;BME280;63470;49.826;6.740;2022-12-07T01:18:54;100441.28;;;4.58;69.37
74722;BME280;63470;49.826;6.740;2022-12-07T01:21:23;100439.21;;;4.57;69.36
74722;BME280;63470;49.826;6.740;2022-12-07T01:23:51;100443.48;;;4.58;69.33
74722;BME280;63470;49.826;6.740;2022-12-07T01:26:23;100445.77;;;4.59;69.32
74722;BME280;63470;49.826;6.740;2022-12-07T01:28:52;100445.47;;;4.60;69.31
74722;BME280;63470;49.826;6.740;2022-12-07T01:31:23;100443.79;;;4.62;69.30
74722;BME280;63470;49.826;6.740;2022-12-07T01:33:55;100445.74;;;4.63;69.23
74722;BME280;63470;49.826;6.740;2022-12-07T01:36:24;100441.72;;;4.63;69.27
74722;BME280;63470;49.826;6.740;2022-12-07T01:38:55;100439.52;;;4.62;69.29
74722;BME280;63470;49.826;6.740;2022-12-07T01:41:26;100437.47;;;4.62;69.31
74722;BME280;63470;49.826;6.740;2022-12-07T01:44:26;100437.81;;;4.63;69.27
74722;BME280;63470;49.826;6.740;2022-12-07T01:46:26;100438.64;;;4.65;69.21
74722;BME280;63470;49.826;6.740;2022-12-07T01:48:56;100439.14;;;4.65;69.21
74722;BME280;63470;49.826;6.740;2022-12-07T01:51:27;100442.28;;;4.68;69.22
74722;BME280;63470;49.826;6.740;2022-12-07T01:53:58;100437.88;;;4.68;69.23
74722;BME280;63470;49.826;6.740;2022-12-07T01:56:29;100436.00;;;4.68;69.29
74722;BME280;63470;49.826;6.740;2022-12-07T01:58:59;100431.58;;;4.68;69.30
74722;BME280;63470;49.826;6.740;2022-12-07T02:01:30;100427.40;;;4.66;69.36
74722;BME280;63470;49.826;6.740;2022-12-07T02:04:01;100429.22;;;4.68;69.41
74722;BME280;63470;49.826;6.740;2022-12-07T02:06:31;100428.66;;;4.71;69.42
74722;BME280;63470;49.826;6.740;2022-12-07T02:09:02;100425.11;;;4.74;69.38
74722;BME280;63470;49.826;6.740;2022-12-07T02:11:32;100423.08;;;4.76;69.37
74722;BME280;63470;49.826;6.740;2022-12-07T02:14:04;100421.95;;;4.76;69.36
74722;BME280;63470;49.826;6.740;2022-12-07T02:17:06;100421.53;;;4.77;69.34
74722;BME280;63470;49.826;6.740;2022-12-07T02:29:22;100416.33;;;4.73;69.38
74722;BME280;63470;49.826;6.740;2022-12-07T02:31:43;100412.73;;;4.73;69.43
74722;BME280;63470;49.826;6.740;2022-12-07T02:34:11;100414.19;;;4.71;69.45
74722;BME280;63470;49.826;6.740;2022-12-07T02:36:42;100414.46;;;4.72;69.50
74722;BME280;63470;49.826;6.740;2022-12-07T02:39:18;100408.02;;;4.72;69.46
74722;BME280;63470;49.826;6.740;2022-12-07T02:41:44;100409.55;;;4.73;69.47
74722;BME280;63470;49.826;6.740;2022-12-07T02:44:14;100407.67;;;4.73;69.46
74722;BME280;63470;49.826;6.740;2022-12-07T02:46:43;100406.28;;;4.73;69.44
74722;BME280;63470;49.826;6.740;2022-12-07T02:49:10;100401.61;;;4.70;69.47
74722;BME280;63470;49.826;6.740;2022-12-07T02:51:45;100397.52;;;4.70;69.52
74722;BME280;63470;49.826;6.740;2022-12-07T02:54:13;100394.47;;;4.69;69.56
74722;BME280;63470;49.826;6.740;2022-12-07T02:56:48;100394.33;;;4.68;69.60
74722;BME280;63470;49.826;6.740;2022-12-07T03:01:56;100395.83;;;4.72;69.67
74722;BME280;63470;49.826;6.740;2022-12-07T03:04:39;100397.39;;;4.75;69.68
74722;BME280;63470;49.826;6.740;2022-12-07T03:06:49;100394.48;;;4.78;69.62
74722;BME280;63470;49.826;6.740;2022-12-07T03:11:51;100400.41;;;4.83;69.56
74722;BME280;63470;49.826;6.740;2022-12-07T03:14:22;100390.93;;;4.83;69.57
74722;BME280;63470;49.826;6.740;2022-12-07T03:16:55;100394.08;;;4.84;69.60
74722;BME280;63470;49.826;6.740;2022-12-07T03:19:20;100388.36;;;4.86;69.61
74722;BME280;63470;49.826;6.740;2022-12-07T03:21:51;100388.31;;;4.89;69.55
74722;BME280;63470;49.826;6.740;2022-12-07T03:24:20;100385.94;;;4.88;69.47
74722;BME280;63470;49.826;6.740;2022-12-07T03:26:51;100385.02;;;4.89;69.51
74722;BME280;63470;49.826;6.740;2022-12-07T03:29:33;100382.92;;;4.90;69.51
74722;BME280;63470;49.826;6.740;2022-12-07T03:31:51;100384.47;;;4.90;69.50
74722;BME280;63470;49.826;6.740;2022-12-07T03:34:36;100386.77;;;4.90;69.52
74722;BME280;63470;49.826;6.740;2022-12-07T03:36:55;100390.58;;;4.89;69.50
74722;BME280;63470;49.826;6.740;2022-12-07T03:39:39;100385.80;;;4.90;69.49
74722;BME280;63470;49.826;6.740;2022-12-07T03:41:50;100380.96;;;4.90;69.51
74722;BME280;63470;49.826;6.740;2022-12-07T03:44:20;100380.16;;;4.91;69.50
74722;BME280;63470;49.826;6.740;2022-12-07T03:49:25;100379.97;;;4.90;69.54
74722;BME280;63470;49.826;6.740;2022-12-07T03:52:18;100378.67;;;4.90;69.52
74722;BME280;63470;49.826;6.740;2022-12-07T03:56:53;100381.88;;;4.92;69.51
74722;BME280;63470;49.826;6.740;2022-12-07T03:59:23;100377.29;;;4.93;69.54
74722;BME280;63470;49.826;6.740;2022-12-07T04:01:59;100375.58;;;4.93;69.54
74722;BME280;63470;49.826;6.740;2022-12-07T04:04:24;100372.31;;;4.93;69.56
74722;BME280;63470;49.826;6.740;2022-12-07T04:06:54;100374.36;;;4.93;69.61
74722;BME280;63470;49.826;6.740;2022-12-07T04:09:25;100373.38;;;4.95;69.65
74722;BME280;63470;49.826;6.740;2022-12-07T04:11:55;100373.33;;;4.97;69.62
74722;BME280;63470;49.826;6.740;2022-12-07T04:14:25;100369.98;;;4.99;69.53
74722;BME280;63470;49.826;6.740;2022-12-07T04:16:59;100371.62;;;4.99;69.53
74722;BME280;63470;49.826;6.740;2022-12-07T04:19:28;100374.33;;;4.99;69.54
74722;BME280;63470;49.826;6.740;2022-12-07T04:21:58;100369.84;;;5.00;69.54
74722;BME280;63470;49.826;6.740;2022-12-07T04:24:27;100371.47;;;4.99;69.55
74722;BME280;63470;49.826;6.740;2022-12-07T04:26:58;100370.11;;;5.01;69.57
74722;BME280;63470;49.826;6.740;2022-12-07T04:29:28;100370.34;;;5.01;69.55
74722;BME280;63470;49.826;6.740;2022-12-07T04:31:59;100370.67;;;5.00;69.56
74722;BME280;63470;49.826;6.740;2022-12-07T04:34:29;100368.71;;;5.00;69.57
74722;BME280;63470;49.826;6.740;2022-12-07T04:37:00;100365.83;;;5.00;69.57
74722;BME280;63470;49.826;6.740;2022-12-07T04:39:32;100362.66;;;5.00;69.57
74722;BME280;63470;49.826;6.740;2022-12-07T04:42:02;100364.61;;;5.01;69.55
74722;BME280;63470;49.826;6.740;2022-12-07T04:44:32;100366.67;;;5.02;69.55
74722;BME280;63470;49.826;6.740;2022-12-07T04:47:02;100367.51;;;5.03;69.56
74722;BME280;63470;49.826;6.740;2022-12-07T04:49:33;100364.06;;;5.04;69.59
74722;BME280;63470;49.826;6.740;2022-12-07T04:52:04;100363.11;;;5.05;69.62
74722;BME280;63470;49.826;6.740;2022-12-07T04:54:35;100360.67;;;5.07;69.63
74722;BME280;63470;49.826;6.740;2022-12-07T04:57:05;100359.59;;;5.07;69.61
74722;BME280;63470;49.826;6.740;2022-12-07T04:59:36;100357.57;;;5.08;69.57
74722;BME280;63470;49.826;6.740;2022-12-07T05:02:06;100360.18;;;5.09;69.57
74722;BME280;63470;49.826;6.740;2022-12-07T05:04:37;100361.23;;;5.09;69.61
74722;BME280;63470;49.826;6.740;2022-12-07T05:07:07;100361.08;;;5.09;69.66
74722;BME280;63470;49.826;6.740;2022-12-07T05:09:37;100359.30;;;5.10;69.68
74722;BME280;63470;49.826;6.740;2022-12-07T05:12:08;100362.33;;;5.11;69.69
74722;BME280;63470;49.826;6.740;2022-12-07T05:14:38;100353.58;;;5.11;69.66
74722;BME280;63470;49.826;6.740;2022-12-07T05:17:09;100355.23;;;5.13;69.63
74722;BME280;63470;49.826;6.740;2022-12-07T05:19:40;100356.28;;;5.13;69.61
74722;BME280;63470;49.826;6.740;2022-12-07T05:22:11;100361.88;;;5.15;69.57
74722;BME280;63470;49.826;6.740;2022-12-07T05:24:41;100361.46;;;5.16;69.55
74722;BME280;63470;49.826;6.740;2022-12-07T05:27:11;100358.28;;;5.15;69.60
74722;BME280;63470;49.826;6.740;2022-12-07T05:29:42;100357.88;;;5.16;69.58
74722;BME280;63470;49.826;6.740;2022-12-07T05:32:12;100359.78;;;5.18;69.60
74722;BME280;63470;49.826;6.740;2022-12-07T05:34:43;100355.77;;;5.19;69.62
74722;BME280;63470;49.826;6.740;2022-12-07T05:37:14;100361.08;;;5.19;69.55
74722;BME280;63470;49.826;6.740;2022-12-07T05:39:45;100357.58;;;5.19;69.54
74722;BME280;63470;49.826;6.740;2022-12-07T05:42:15;100357.48;;;5.17;69.56
74722;BME280;63470;49.826;6.740;2022-12-07T05:44:46;100354.78;;;5.17;69.59
74722;BME280;63470;49.826;6.740;2022-12-07T05:47:17;100355.66;;;5.16;69.62
74722;BME280;63470;49.826;6.740;2022-12-07T05:49:49;100359.84;;;5.18;69.66
74722;BME280;63470;49.826;6.740;2022-12-07T05:52:17;100359.36;;;5.18;69.61
74722;BME280;63470;49.826;6.740;2022-12-07T05:54:48;100362.16;;;5.17;69.54
74722;BME280;63470;49.826;6.740;2022-12-07T05:57:19;100357.94;;;5.15;69.56
74722;BME280;63470;49.826;6.740;2022-12-07T05:59:49;100364.68;;;5.17;69.61
74722;BME280;63470;49.826;6.740;2022-12-07T06:02:20;100361.46;;;5.16;69.58
74722;BME280;63470;49.826;6.740;2022-12-07T06:04:50;100358.21;;;5.15;69.56
74722;BME280;63470;49.826;6.740;2022-12-07T06:07:21;100358.27;;;5.14;69.61
74722;BME280;63470;49.826;6.740;2022-12-07T06:09:51;100357.19;;;5.13;69.69
74722;BME280;63470;49.826;6.740;2022-12-07T06:12:40;100360.48;;;5.16;69.69
74722;BME280;63470;49.826;6.740;2022-12-07T06:14:52;100354.70;;;5.17;69.67
74722;BME280;63470;49.826;6.740;2022-12-07T06:17:23;100355.34;;;5.18;69.65
74722;BME280;63470;49.826;6.740;2022-12-07T06:19:54;100356.69;;;5.20;69.70
74722;BME280;63470;49.826;6.740;2022-12-07T06:22:24;100353.50;;;5.22;69.67
74722;BME280;63470;49.826;6.740;2022-12-07T06:24:55;100351.55;;;5.23;69.66
74722;BME280;63470;49.826;6.740;2022-12-07T06:27:25;100356.33;;;5.25;69.68
74722;BME280;63470;49.826;6.740;2022-12-07T06:29:56;100352.41;;;5.27;69.58
74722;BME280;63470;49.826;6.740;2022-12-07T06:32:26;100352.16;;;5.26;69.59
74722;BME280;63470;49.826;6.740;2022-12-07T06:34:57;100355.59;;;5.26;69.62
74722;BME280;63470;49.826;6.740;2022-12-07T06:37:27;100359.67;;;5.26;69.62
74722;BME280;63470;49.826;6.740;2022-12-07T06:39:58;100363.67;;;5.25;69.67
74722;BME280;63470;49.826;6.740;2022-12-07T06:42:29;100367.02;;;5.24;69.68
74722;BME280;63470;49.826;6.740;2022-12-07T06:44:59;100361.14;;;5.26;69.64
74722;BME280;63470;49.826;6.740;2022-12-07T06:47:30;100367.21;;;5.27;69.61
74722;BME280;63470;49.826;6.740;2022-12-07T06:50:00;100366.21;;;5.27;69.58
74722;BME280;63470;49.826;6.740;2022-12-07T06:52:31;100364.34;;;5.27;69.54
74722;BME280;63470;49.826;6.740;2022-12-07T06:55:01;100366.12;;;5.25;69.60
74722;BME280;63470;49.826;6.740;2022-12-07T06:57:32;100367.77;;;5.23;69.64
74722;BME280;63470;49.826;6.740;2022-12-07T07:00:03;100370.61;;;5.22;69.57
74722;BME280;63470;49.826;6.740;2022-12-07T07:02:33;100365.59;;;5.20;69.62
74722;BME280;63470;49.826;6.740;2022-12-07T07:05:04;100367.45;;;5.19;69.68
74722;BME280;63470;49.826;6.740;2022-12-07T07:07:34;100374.09;;;5.20;69.71
74722;BME280;63470;49.826;6.740;2022-12-07T07:10:05;100369.12;;;5.20;69.75
74722;BME280;63470;49.826;6.740;2022-12-07T07:12:35;100369.05;;;5.21;69.70
74722;BME280;63470;49.826;6.740;2022-12-07T07:15:06;100372.31;;;5.21;69.70
74722;BME280;63470;49.826;6.740;2022-12-07T07:17:36;100372.33;;;5.21;69.70
74722;BME280;63470;49.826;6.740;2022-12-07T07:20:07;100367.64;;;5.21;69.69
74722;BME280;63470;49.826;6.740;2022-12-07T07:22:36;100367.57;;;5.21;69.75
74722;BME280;63470;49.826;6.740;2022-12-07T07:25:07;100369.62;;;5.21;69.78
74722;BME280;63470;49.826;6.740;2022-12-07T07:27:38;100366.28;;;5.23;69.80
74722;BME280;63470;49.826;6.740;2022-12-07T07:30:09;100372.91;;;5.24;69.77
74722;BME280;63470;49.826;6.740;2022-12-07T07:32:39;100374.89;;;5.25;69.76
74722;BME280;63470;49.826;6.740;2022-12-07T07:35:09;100379.21;;;5.26;69.70
74722;BME280;63470;49.826;6.740;2022-12-07T07:37:40;100378.88;;;5.26;69.68
74722;BME280;63470;49.826;6.740;2022-12-07T07:40:11;100376.28;;;5.26;69.63
74722;BME280;63470;49.826;6.740;2022-12-07T07:42:40;100377.83;;;5.26;69.60
74722;BME280;63470;49.826;6.740;2022-12-07T07:45:11;100383.88;;;5.27;69.62
74722;BME280;63470;49.826;6.740;2022-12-07T07:47:41;100384.86;;;5.27;69.67
74722;BME280;63470;49.826;6.740;2022-12-07T07:50:12;100385.80;;;5.29;69.68
74722;BME280;63470;49.826;6.740;2022-12-07T07:52:43;100394.17;;;5.34;69.67
74722;BME280;63470;49.826;6.740;2022-12-07T07:55:14;100397.81;;;5.40;69.69
74722;BME280;63470;49.826;6.740;2022-12-07T07:57:43;100401.36;;;5.45;69.64
74722;BME280;63470;49.826;6.740;2022-12-07T08:00:15;100398.40;;;5.51;69.52
74722;BME280;63470;49.826;6.740;2022-12-07T08:02:46;100406.43;;;5.54;69.43
74722;BME280;63470;49.826;6.740;2022-12-07T08:05:19;100412.86;;;5.57;69.42
74722;BME280;63470;49.826;6.740;2022-12-07T08:07:45;100415.07;;;5.59;69.38
74722;BME280;63470;49.826;6.740;2022-12-07T08:10:16;100414.89;;;5.58;69.37
74722;BME280;63470;49.826;6.740;2022-12-07T08:13:16;100411.69;;;5.55;69.37
74722;BME280;63470;49.826;6.740;2022-12-07T08:15:17;100407.56;;;5.52;69.39
74722;BME280;63470;49.826;6.740;2022-12-07T08:17:48;100408.62;;;5.50;69.42
74722;BME280;63470;49.826;6.740;2022-12-07T08:20:21;100408.13;;;5.52;69.43
74722;BME280;63470;49.826;6.740;2022-12-07T08:22:49;100410.12;;;5.56;69.48
74722;BME280;63470;49.826;6.740;2022-12-07T08:25:20;100411.46;;;5.60;69.53
74722;BME280;63470;49.826;6.740;2022-12-07T08:27:51;100406.06;;;5.62;69.55
74722;BME280;63470;49.826;6.740;2022-12-07T08:30:20;100407.24;;;5.63;69.56
74722;BME280;63470;49.826;6.740;2022-12-07T08:32:51;100415.56;;;5.62;69.55
74722;BME280;63470;49.826;6.740;2022-12-07T08:35:22;100416.33;;;5.54;69.56
74722;BME280;63470;49.826;6.740;2022-12-07T08:37:52;100415.38;;;5.48;69.71
74722;BME280;63470;49.826;6.740;2022-12-07T08:40:22;100422.55;;;5.51;69.81
74722;BME280;63470;49.826;6.740;2022-12-07T08:42:53;100421.33;;;5.56;69.82
74722;BME280;63470;49.826;6.740;2022-12-07T08:45:23;100415.50;;;5.63;69.79
74722;BME280;63470;49.826;6.740;2022-12-07T08:47:59;100412.99;;;5.70;69.71
74722;BME280;63470;49.826;6.740;2022-12-07T08:50:24;100416.25;;;5.77;69.64
74722;BME280;63470;49.826;6.740;2022-12-07T08:52:57;100410.76;;;5.86;69.58
74722;BME280;63470;49.826;6.740;2022-12-07T08:55:27;100408.94;;;5.96;69.53
74722;BME280;63470;49.826;6.740;2022-12-07T08:58:00;100405.41;;;6.06;69.41
74722;BME280;63470;49.826;6.740;2022-12-07T09:00:27;100404.30;;;6.15;69.27
74722;BME280;63470;49.826;6.740;2022-12-07T09:02:57;100406.38;;;6.22;69.19
74722;BME280;63470;49.826;6.740;2022-12-07T09:05:28;100401.91;;;6.28;69.18
74722;BME280;63470;49.826;6.740;2022-12-07T09:08:01;100399.62;;;6.38;69.18
74722;BME280;63470;49.826;6.740;2022-12-07T09:10:29;100398.95;;;6.53;69.15
74722;BME280;63470;49.826;6.740;2022-12-07T09:13:01;100398.94;;;6.74;69.05
74722;BME280;63470;49.826;6.740;2022-12-07T09:15:30;100391.98;;;6.92;68.91
74722;BME280;63470;49.826;6.740;2022-12-07T09:18:00;100394.05;;;7.07;68.72
74722;BME280;63470;49.826;6.740;2022-12-07T09:20:30;100396.53;;;7.15;68.66
74722;BME280;63470;49.826;6.740;2022-12-07T09:23:01;100397.50;;;7.16;68.72
74722;BME280;63470;49.826;6.740;2022-12-07T09:25:32;100396.25;;;7.11;68.76
74722;BME280;63470;49.826;6.740;2022-12-07T09:28:02;100398.48;;;7.02;68.87
74722;BME280;63470;49.826;6.740;2022-12-07T09:30:33;100400.43;;;6.95;69.00
74722;BME280;63470;49.826;6.740;2022-12-07T09:33:03;100404.77;;;6.95;69.16
74722;BME280;63470;49.826;6.740;2022-12-07T09:35:33;100404.28;;;6.95;69.07
74722;BME280;63470;49.826;6.740;2022-12-07T09:38:04;100403.20;;;6.91;69.06
74722;BME280;63470;49.826;6.740;2022-12-07T09:40:34;100408.39;;;6.90;69.21
74722;BME280;63470;49.826;6.740;2022-12-07T09:43:13;100401.09;;;6.90;69.24
74722;BME280;63470;49.826;6.740;2022-12-07T09:45:36;100401.00;;;6.92;69.24
74722;BME280;63470;49.826;6.740;2022-12-07T09:48:18;100398.55;;;6.94;69.27
74722;BME280;63470;49.826;6.740;2022-12-07T09:50:37;100392.00;;;6.97;69.24
74722;BME280;63470;49.826;6.740;2022-12-07T09:53:11;100390.36;;;6.98;69.12
74722;BME280;63470;49.826;6.740;2022-12-07T09:55:38;100384.02;;;6.95;69.11
74722;BME280;63470;49.826;6.740;2022-12-07T09:58:20;100384.53;;;7.00;69.20
74722;BME280;63470;49.826;6.740;2022-12-07T10:00:40;100383.14;;;7.14;69.12
74722;BME280;63470;49.826;6.740;2022-12-07T10:03:11;100384.05;;;7.24;68.98
74722;BME280;63470;49.826;6.740;2022-12-07T10:05:44;100375.42;;;7.30;68.89
74722;BME280;63470;49.826;6.740;2022-12-07T10:08:12;100370.25;;;7.32;68.95
74722;BME280;63470;49.826;6.740;2022-12-07T10:10:41;100368.45;;;7.35;69.06
74722;BME280;63470;49.826;6.740;2022-12-07T10:13:16;100362.52;;;7.42;69.14
74722;BME280;63470;49.826;6.740;2022-12-07T10:15:44;100362.69;;;7.48;69.14
74722;BME280;63470;49.826;6.740;2022-12-07T10:18:30;100359.47;;;7.53;69.09
74722;BME280;63470;49.826;6.740;2022-12-07T10:20:44;100351.24;;;7.57;69.05
74722;BME280;63470;49.826;6.740;2022-12-07T10:23:15;100352.58;;;7.56;69.01
74722;BME280;63470;49.826;6.740;2022-12-07T10:25:44;100347.97;;;7.54;69.04
74722;BME280;63470;49.826;6.740;2022-12-07T10:28:15;100345.09;;;7.54;69.14
74722;BME280;63470;49.826;6.740;2022-12-07T10:30:58;100342.73;;;7.52;69.23
74722;BME280;63470;49.826;6.740;2022-12-07T10:33:36;100340.27;;;7.47;69.17
74722;BME280;63470;49.826;6.740;2022-12-07T10:35:44;100343.01;;;7.41;69.20
74722;BME280;63470;49.826;6.740;2022-12-07T10:38:16;100338.91;;;7.39;69.23
74722;BME280;63470;49.826;6.740;2022-12-07T10:40:46;100338.06;;;7.38;69.27
74722;BME280;63470;49.826;6.740;2022-12-07T10:43:18;100336.52;;;7.40;69.35
74722;BME280;63470;49.826;6.740;2022-12-07T10:46:10;100335.11;;;7.40;69.35
74722;BME280;63470;49.826;6.740;2022-12-07T10:48:40;100335.95;;;7.37;69.36
74722;BME280;63470;49.826;6.740;2022-12-07T10:51:07;100332.16;;;7.32;69.45
74722;BME280;63470;49.826;6.740;2022-12-07T10:58:44;100336.87;;;7.27;69.63
74722;BME280;63470;49.826;6.740;2022-12-07T11:01:13;100331.42;;;7.27;69.62
74722;BME280;63470;49.826;6.740;2022-12-07T11:03:42;100331.60;;;7.28;69.57
74722;BME280;63470;49.826;6.740;2022-12-07T11:11:14;100322.48;;;7.28;69.66
74722;BME280;63470;49.826;6.740;2022-12-07T11:13:36;100317.97;;;7.36;69.64
74722;BME280;63470;49.826;6.740;2022-12-07T11:16:31;100309.64;;;7.48;69.48
74722;BME280;63470;49.826;6.740;2022-12-07T11:18:29;100309.28;;;7.60;69.32
74722;BME280;63470;49.826;6.740;2022-12-07T11:21:07;100305.98;;;7.73;69.19
74722;BME280;63470;49.826;6.740;2022-12-07T11:26:23;100308.21;;;8.06;68.86
74722;BME280;63470;49.826;6.740;2022-12-07T11:28:43;100297.73;;;8.20;68.66
74722;BME280;63470;49.826;6.740;2022-12-07T11:31:18;100297.27;;;8.24;68.60
74722;BME280;63470;49.826;6.740;2022-12-07T11:33:34;100296.58;;;8.26;68.56
74722;BME280;63470;49.826;6.740;2022-12-07T11:38:43;100287.19;;;8.27;68.67
74722;BME280;63470;49.826;6.740;2022-12-07T11:41:00;100284.62;;;8.31;68.71
74722;BME280;63470;49.826;6.740;2022-12-07T11:43:27;100286.42;;;8.30;68.69
74722;BME280;63470;49.826;6.740;2022-12-07T11:46:03;100284.80;;;8.23;68.87
74722;BME280;63470;49.826;6.740;2022-12-07T11:48:38;100282.93;;;8.19;69.09
74722;BME280;63470;49.826;6.740;2022-12-07T11:50:58;100274.38;;;8.18;69.15
74722;BME280;63470;49.826;6.740;2022-12-07T11:53:37;100274.70;;;8.21;69.20
74722;BME280;63470;49.826;6.740;2022-12-07T11:56:20;100273.95;;;8.23;69.10
74722;BME280;63470;49.826;6.740;2022-12-07T12:03:34;100273.14;;;8.22;69.19
74722;BME280;63470;49.826;6.740;2022-12-07T12:06:00;100268.39;;;8.17;69.15
74722;BME280;63470;49.826;6.740;2022-12-07T12:08:35;100261.92;;;8.13;69.18
74722;BME280;63470;49.826;6.740;2022-12-07T12:11:25;100260.04;;;8.11;69.12
74722;BME280;63470;49.826;6.740;2022-12-07T12:14:08;100255.30;;;8.08;69.12
74722;BME280;63470;49.826;6.740;2022-12-07T12:19:08;100257.70;;;8.05;69.02
74722;BME280;63470;49.826;6.740;2022-12-07T12:21:09;100257.38;;;8.00;69.08
74722;BME280;63470;49.826;6.740;2022-12-07T12:23:45;100252.17;;;7.93;69.14
74722;BME280;63470;49.826;6.740;2022-12-07T12:26:05;100248.42;;;7.87;69.29
74722;BME280;63470;49.826;6.740;2022-12-07T12:28:42;100246.86;;;7.84;69.41
74722;BME280;63470;49.826;6.740;2022-12-07T12:31:08;100245.23;;;7.82;69.50
74722;BME280;63470;49.826;6.740;2022-12-07T12:33:35;100241.55;;;7.81;69.48
74722;BME280;63470;49.826;6.740;2022-12-07T12:38:50;100243.95;;;7.90;69.59
74722;BME280;63470;49.826;6.740;2022-12-07T12:41:05;100236.23;;;8.06;69.52
74722;BME280;63470;49.826;6.740;2022-12-07T12:43:48;100233.48;;;8.24;69.35
74722;BME280;63470;49.826;6.740;2022-12-07T12:48:37;100229.84;;;8.45;69.02
74722;BME280;63470;49.826;6.740;2022-12-07T12:51:36;100224.58;;;8.48;69.01
74722;BME280;63470;49.826;6.740;2022-12-07T12:53:38;100224.98;;;8.47;69.06
74722;BME280;63470;49.826;6.740;2022-12-07T12:56:23;100224.41;;;8.47;69.05
74722;BME280;63470;49.826;6.740;2022-12-07T12:58:41;100223.53;;;8.44;69.08
74722;BME280;63470;49.826;6.740;2022-12-07T13:01:41;100218.62;;;8.39;69.11
74722;BME280;63470;49.826;6.740;2022-12-07T13:03:54;100217.09;;;8.36;69.17
74722;BME280;63470;49.826;6.740;2022-12-07T13:06:32;100215.79;;;8.33;69.23
74722;BME280;63470;49.826;6.740;2022-12-07T13:08:41;100215.27;;;8.27;69.25
74722;BME280;63470;49.826;6.740;2022-12-07T13:11:17;100214.34;;;8.22;69.32
74722;BME280;63470;49.826;6.740;2022-12-07T13:13:42;100213.64;;;8.19;69.31
74722;BME280;63470;49.826;6.740;2022-12-07T13:18:43;100204.05;;;8.12;69.34
74722;BME280;63470;49.826;6.740;2022-12-07T13:23:54;100207.88;;;7.95;69.36
74722;BME280;63470;49.826;6.740;2022-12-07T13:26:37;100207.32;;;7.78;69.46
74722;BME280;63470;49.826;6.740;2022-12-07T13:28:49;100204.37;;;7.56;69.62
74722;BME280;63470;49.826;6.740;2022-12-07T13:31:36;100203.86;;;7.37;69.78
74722;BME280;63470;49.826;6.740;2022-12-07T13:33:47;100200.31;;;7.25;69.96
74722;BME280;63470;49.826;6.740;2022-12-07T13:36:22;100199.83;;;7.19;70.16
74722;BME280;63470;49.826;6.740;2022-12-07T13:38:51;100196.29;;;7.25;70.27
74722;BME280;63470;49.826;6.740;2022-12-07T13:41:19;100192.69;;;7.37;70.14
74722;BME280;63470;49.826;6.740;2022-12-07T13:46:26;100181.23;;;7.87;69.78
74722;BME280;63470;49.826;6.740;2022-12-07T13:48:50;100174.34;;;8.10;69.42
74722;BME280;63470;49.826;6.740;2022-12-07T13:51:25;100178.09;;;8.22;69.33
74722;BME280;63470;49.826;6.740;2022-12-07T13:53:55;100170.34;;;8.30;69.40
74722;BME280;63470;49.826;6.740;2022-12-07T13:56:31;100165.70;;;8.34;69.44
74722;BME280;63470;49.826;6.740;2022-12-07T13:58:51;100164.58;;;8.44;69.33
74722;BME280;63470;49.826;6.740;2022-12-07T14:01:24;100162.97;;;8.46;69.51
74722;BME280;63470;49.826;6.740;2022-12-07T14:03:53;100154.53;;;8.53;69.54
74722;BME280;63470;49.826;6.740;2022-12-07T14:06:26;100154.66;;;8.57;69.51
74722;BME280;63470;49.826;6.740;2022-12-07T14:09:07;100148.35;;;8.55;69.54
74722;BME280;63470;49.826;6.740;2022-12-07T14:11:29;100149.60;;;8.53;69.59